DABCDAFH

Guest
Details From DABC - MOHAMED BOUDIAF INTL
To DAFH - HASSI R MEL
Flight Number -
Tags generated
Created
Modified
Stats Distance 267 nm / 495 km
Max Altitude 34,000 ft / 10,363 m
Waypoints 4
Social Downloads 0
Likes 0
Share

Download

Looking for another format? Having issues loading an existing format? Contact us
Advertisement - Login to hide

Notes

Basic altitude profile: - Ascent Rate: 2500ft/min - Ascent Speed: 250kts - Cruise Altitude: 35000ft - Cruise Speed: 420kts - Descent Rate: 1500ft/min - Descent Speed: 250kts Options: - Use NATs: yes - Use PACOTS: yes - Use low airways: yes - Use high airways: yes

Route

DABC BIS UG859 DAYAT DAFH

ID Type Via Altitude (ft/m) Position (lat/lon) Dist (leg/tot) Name
O DABC APT - 0 / 0 36.27604 / 6.62028 - / 0 nm MOHAMED BOUDIAF INTL
BIS VOR - 34,000 / 10,363 34.77500 / 5.75833 99 / 99 nm BISKRA VOR-DME
DAYAT FIX UG859 (AWY-HI) 24,500 / 7,468 33.86667 / 5.00000 66 / 165 nm
O DAFH APT - 0 / 0 32.93137 / 3.31032 101 / 267 nm HASSI R MEL

Altitude Profile

Advertisement - Login to hide

Weather


0- 5 10 15 20 25 30 35+ Temperature / °C

Clouds and Precipitation
Forecast for 2021-03-22 12:00 UTC. Updated 2 months ago

Ground ~20,000 ft ~40,000 ft Winds

DABC

Details ICAO DABC (CZL)
Name Mohamed Boudiaf International
Region Algeria
Timezone Africa/Algiers (UTC+1.0)
Stats Elevation 2,316 ft / 706 m (AMSL)
Location 36.276000° 6.620350°
Runways 2
Magnetic Variation 2.063° E

METAR

DABC 080700Z 16003KT CAVOK 14/12 Q1022

Decode

TAF

TAF DABC 080500Z 0806/0906 25008KT 9999 FEW010 SCT020 PROB30 TEMPO 0806/0808 2000 BR BKN008 PROB30 TEMPO 0806/0807 0300 FG BKN003

Decode

Departure Runways

ID Width Length Bearing (true/mag) Surface Threshold Overrun Markings Lighting
13 148 ft / 45 m 7,848 ft / 2,392 m 136.20° / 134.14° ASPHALT 341 ft / 104 m 344 ft / 105 m PREC-APP EDGE THRESHOLD RAIL REIL-UNI
16 148 ft / 45 m 9,841 ft / 3,000 m 159.16° / 157.10° ASPHALT 0 ft / 0 m 390 ft / 119 m PREC-APP EDGE THRESHOLD RAIL
31 148 ft / 45 m 7,848 ft / 2,392 m 316.21° / 314.15° ASPHALT 0 ft / 0 m 200 ft / 61 m PREC-APP EDGE THRESHOLD RAIL
34 148 ft / 45 m 9,841 ft / 3,000 m 339.17° / 337.11° ASPHALT 0 ft / 0 m 420 ft / 128 m PREC-APP EDGE THRESHOLD RAIL

DAFH

Details ICAO DAFH (HRM)
Name HASSI R MEL
Region Algeria
Timezone Africa/Algiers (UTC+1.0)
Stats Elevation 2,540 ft / 774 m (AMSL)
Location 32.931400° 3.310320°
Runways 2
Magnetic Variation 1.271° E

METAR

DAFH 080700Z 04006KT CAVOK 19/10 Q1023

Decode

TAF

Not found

Destination Runways

ID Width Length Bearing (true/mag) Surface Threshold Overrun Markings Lighting
08 148 ft / 45 m 9,818 ft / 2,993 m 79.11° / 77.84° ASPHALT 0 ft / 0 m 340 ft / 104 m APP
09 100 ft / 30 m 4,684 ft / 1,428 m 88.10° / 86.83° ASPHALT 280 ft / 85 m 175 ft / 53 m APP
26 148 ft / 45 m 9,818 ft / 2,993 m 259.13° / 257.85° ASPHALT 0 ft / 0 m 125 ft / 38 m APP
27 100 ft / 30 m 4,684 ft / 1,428 m 268.11° / 266.84° ASPHALT 0 ft / 0 m 0 ft / 0 m APP

Popular Alternatives